Terminal Aerodrome Forecast
Issued by NWS Huntsville, AL

Home | Current Version | Previous Version | Text Only | Print | Product List | Glossary On
Versions: 1 2 3 4 5 6 7 8 9 10 11 12 13 14 15 16 17 18 19 20
000
FTUS44 KHUN 251120
TAFMSL
TAF
KMSL 251120Z 2512/2612 30005KT P6SM OVC025
     FM251400 31007KT P6SM OVC020
     FM251700 33009G14KT P6SM OVC050
     FM252100 35004KT P6SM OVC090
     FM260600 VRB03KT 6SM -SHRA OVC015=

USA.gov is the U.S. government's official web portal to all federal, state and local government web resources and services.